Terminal Aerodrome Forecast
Issued by NWS Lake Charles, LA

Home | Current Version | Previous Version | Text Only | Print | Product List | Glossary On
Versions: 1 2 3 4 5 6 7 8 9 10 11 12 13 14 15
310
FTUS44 KLCH 251720
TAFBPT
TAF
KBPT 251720Z 2518/2618 08006KT P6SM SCT030 BKN040
      TEMPO 2518/2520 BKN030 OVC040
     FM252000 10008KT P6SM VCTS SCT030CB BKN040
      TEMPO 2520/2524 VRB15G25KT 2SM +TSRA OVC030CB
     FM260200 06004KT P6SM FEW050 BKN150
     FM261500 06007KT P6SM VCTS SCT035CB BKN250=

USA.gov is the U.S. government's official web portal to all federal, state and local government web resources and services.